Time;durP1;ratioP1;P1;durP2;ratioP2;P2;SDS_P1;SDS_P2;PMS_P1;PMS_P2;Temp;Humidity;BMP_temperature;BMP_pressure;BME280_temperature;BME280_humidity;BME280_pressure;Samples;Min_cycle;Max_cycle;Signal;HPM_P1;HPM_P2
2022/06/09 00:01:14;;;;;;;4.23;2.37;;;;;;;;;;5118812;27;20893;-70
2022/06/09 00:03:46;;;;;;;4.37;2.40;;;;;;;;;;5118541;27;20465;-70
2022/06/09 00:06:14;;;;;;;4.30;2.37;;;;;;;;;;5118485;27;20466;-71
2022/06/09 00:08:43;;;;;;;3.17;1.87;;;;;;;;;;5118870;27;20490;-70
2022/06/09 00:11:13;;;;;;;4.50;2.13;;;;;;;;;;5101386;28;20466;-70
2022/06/09 00:13:41;;;;;;;3.47;2.03;;;;;;;;;;5119148;27;20482;-72
2022/06/09 00:16:10;;;;;;;3.47;2.20;;;;;;;;;;5105812;28;20862;-72
2022/06/09 00:18:38;;;;;;;4.20;2.10;;;;;;;;;;5105296;28;20447;-72
2022/06/09 00:21:07;;;;;;;3.33;2.17;;;;;;;;;;5117258;27;20550;-72
2022/06/09 00:23:35;;;;;;;3.30;2.40;;;;;;;;;;5118621;27;20942;-72
2022/06/09 00:26:03;;;;;;;4.00;2.23;;;;;;;;;;5118371;27;20553;-72
2022/06/09 00:28:31;;;;;;;2.60;2.00;;;;;;;;;;5118575;27;20458;-72
2022/06/09 00:30:59;;;;;;;3.90;2.50;;;;;;;;;;5118404;27;20458;-72
2022/06/09 00:33:26;;;;;;;3.50;2.63;;;;;;;;;;5118294;27;20455;-72
2022/06/09 00:35:54;;;;;;;3.10;2.40;;;;;;;;;;5117900;27;20470;-72
2022/06/09 00:38:23;;;;;;;4.30;2.50;;;;;;;;;;5118416;27;20470;-72
2022/06/09 00:40:59;;;;;;;3.70;2.37;;;;;;;;;;5117508;27;20461;-71
2022/06/09 00:43:27;;;;;;;5.40;2.13;;;;;;;;;;5118395;27;20553;-71
2022/06/09 00:46:05;;;;;;;4.10;2.40;;;;;;;;;;5118019;27;20479;-71
2022/06/09 00:48:37;;;;;;;4.63;2.27;;;;;;;;;;5112151;27;20475;-71
2022/06/09 00:51:12;;;;;;;3.80;1.50;;;;;;;;;;5117782;27;20458;-71
2022/06/09 00:53:42;;;;;;;2.40;1.77;;;;;;;;;;5118755;27;20450;-71
2022/06/09 00:56:12;;;;;;;5.27;2.30;;;;;;;;;;5117199;27;20823;-71
2022/06/09 00:58:42;;;;;;;5.60;3.50;;;;;;;;;;5118061;27;20466;-71
2022/06/09 01:01:13;;;;;;;3.57;1.67;;;;;;;;;;5117192;28;20454;-72
2022/06/09 01:03:42;;;;;;;3.43;1.60;;;;;;;;;;5117857;27;20527;-71
2022/06/09 01:06:12;;;;;;;3.13;1.60;;;;;;;;;;5117661;27;20492;-71
2022/06/09 01:08:45;;;;;;;2.43;1.70;;;;;;;;;;5117712;27;20755;-71
2022/06/09 01:11:13;;;;;;;2.40;1.53;;;;;;;;;;5117021;27;20463;-71
2022/06/09 01:13:41;;;;;;;2.73;2.10;;;;;;;;;;5118007;27;20451;-71
2022/06/09 01:16:13;;;;;;;2.53;1.20;;;;;;;;;;5116948;27;21079;-71
2022/06/09 01:18:47;;;;;;;3.70;1.20;;;;;;;;;;5115111;27;20533;-71
2022/06/09 01:21:23;;;;;;;3.13;1.40;;;;;;;;;;5117410;27;20466;-71
2022/06/09 01:24:08;;;;;;;2.50;1.83;;;;;;;;;;5109486;27;20462;-71
2022/06/09 01:26:48;;;;;;;2.07;1.03;;;;;;;;;;5116643;27;20458;-70
2022/06/09 01:29:23;;;;;;;3.80;1.27;;;;;;;;;;5117616;27;20461;-70
2022/06/09 01:31:54;;;;;;;2.63;1.30;;;;;;;;;;5116179;27;20454;-70
2022/06/09 01:34:26;;;;;;;3.33;2.13;;;;;;;;;;5116881;28;20461;-70
2022/06/09 01:37:01;;;;;;;2.00;1.10;;;;;;;;;;5117508;27;20489;-72
2022/06/09 01:39:30;;;;;;;3.23;1.53;;;;;;;;;;5114716;27;20829;-71
2022/06/09 01:41:58;;;;;;;2.83;1.80;;;;;;;;;;5117245;27;20543;-71
2022/06/09 01:44:25;;;;;;;3.73;1.30;;;;;;;;;;5116606;27;20474;-71
2022/06/09 01:46:59;;;;;;;1.90;1.40;;;;;;;;;;5117576;27;20735;-71
2022/06/09 01:49:28;;;;;;;2.53;1.57;;;;;;;;;;5116439;27;20554;-71
2022/06/09 01:51:57;;;;;;;2.60;1.60;;;;;;;;;;5112982;27;20463;-71
2022/06/09 01:54:27;;;;;;;2.57;1.63;;;;;;;;;;5097116;27;20535;-71
2022/06/09 01:56:59;;;;;;;2.73;2.00;;;;;;;;;;5100407;27;20902;-71
2022/06/09 01:59:29;;;;;;;3.90;1.40;;;;;;;;;;5116827;27;20450;-71
2022/06/09 02:02:00;;;;;;;2.30;1.27;;;;;;;;;;5116383;27;20471;-71
2022/06/09 02:04:30;;;;;;;3.23;1.57;;;;;;;;;;5116116;28;20478;-71
2022/06/09 02:06:58;;;;;;;3.50;1.00;;;;;;;;;;5099783;28;20466;-71
2022/06/09 02:09:28;;;;;;;3.03;1.60;;;;;;;;;;5116793;27;20689;-71
2022/06/09 02:11:56;;;;;;;2.67;1.80;;;;;;;;;;5114529;27;20459;-71
2022/06/09 02:14:25;;;;;;;3.30;1.47;;;;;;;;;;5116461;28;20469;-71
2022/06/09 02:16:53;;;;;;;2.97;1.63;;;;;;;;;;5115765;27;20458;-71
2022/06/09 02:19:23;;;;;;;3.23;1.40;;;;;;;;;;5116111;28;20457;-71
2022/06/09 02:21:50;;;;;;;2.43;1.33;;;;;;;;;;5115066;27;20490;-71
2022/06/09 02:24:18;;;;;;;2.20;1.30;;;;;;;;;;5115907;28;20465;-71
2022/06/09 02:26:48;;;;;;;3.43;1.43;;;;;;;;;;5108707;28;20889;-71
2022/06/09 02:29:16;;;;;;;3.10;1.60;;;;;;;;;;5115978;27;20887;-71
2022/06/09 02:31:44;;;;;;;2.00;1.40;;;;;;;;;;5116386;28;20883;-71
2022/06/09 02:34:13;;;;;;;2.97;1.53;;;;;;;;;;5115610;27;20839;-71
2022/06/09 02:36:42;;;;;;;2.30;1.50;;;;;;;;;;5115604;27;20877;-71
2022/06/09 02:39:10;;;;;;;1.87;1.10;;;;;;;;;;5115658;27;20545;-71
2022/06/09 02:41:37;;;;;;;3.43;1.70;;;;;;;;;;5116314;28;20516;-71
2022/06/09 02:44:05;;;;;;;2.10;1.33;;;;;;;;;;5115361;28;20447;-71
2022/06/09 02:46:33;;;;;;;2.40;1.60;;;;;;;;;;5115238;28;20509;-70
2022/06/09 02:49:01;;;;;;;3.13;1.93;;;;;;;;;;5115884;27;20446;-70
2022/06/09 02:51:30;;;;;;;2.63;1.50;;;;;;;;;;5115795;28;20455;-71
2022/06/09 02:54:00;;;;;;;2.93;1.70;;;;;;;;;;5115864;28;20514;-71
2022/06/09 02:56:28;;;;;;;3.60;1.83;;;;;;;;;;5115351;28;20866;-71
2022/06/09 02:58:56;;;;;;;4.40;2.00;;;;;;;;;;5115676;28;20461;-71
2022/06/09 03:01:24;;;;;;;2.90;1.63;;;;;;;;;;5114190;28;20454;-70
2022/06/09 03:03:52;;;;;;;2.97;1.93;;;;;;;;;;5095644;28;20930;-71
2022/06/09 03:06:20;;;;;;;2.77;1.73;;;;;;;;;;5094986;28;20529;-71
2022/06/09 03:08:48;;;;;;;4.80;1.67;;;;;;;;;;5101393;28;20880;-71
2022/06/09 03:11:20;;;;;;;3.83;2.43;;;;;;;;;;5114918;28;20898;-71
2022/06/09 03:13:48;;;;;;;3.00;2.00;;;;;;;;;;5115474;28;20739;-70
2022/06/09 03:16:19;;;;;;;2.50;1.70;;;;;;;;;;5115629;28;20463;-70
2022/06/09 03:18:47;;;;;;;2.70;2.10;;;;;;;;;;5114261;28;20534;-71
2022/06/09 03:21:15;;;;;;;2.63;1.90;;;;;;;;;;5114905;28;20917;-71
2022/06/09 03:23:43;;;;;;;2.57;1.93;;;;;;;;;;5114754;28;20523;-71
2022/06/09 03:26:10;;;;;;;3.47;2.03;;;;;;;;;;5114839;28;20585;-70
2022/06/09 03:28:41;;;;;;;3.57;2.07;;;;;;;;;;5107293;28;20447;-71
2022/06/09 03:31:08;;;;;;;2.70;2.00;;;;;;;;;;5115390;28;20459;-71
2022/06/09 03:33:38;;;;;;;2.60;1.90;;;;;;;;;;5114953;28;20459;-71
2022/06/09 03:36:06;;;;;;;2.23;2.00;;;;;;;;;;5115026;28;20466;-71
2022/06/09 03:38:33;;;;;;;2.80;2.50;;;;;;;;;;5104767;28;20452;-70
2022/06/09 03:41:01;;;;;;;5.33;2.93;;;;;;;;;;5100959;28;20470;-71
2022/06/09 03:43:29;;;;;;;5.27;4.77;;;;;;;;;;5114740;28;20481;-71
2022/06/09 03:46:01;;;;;;;3.93;2.90;;;;;;;;;;5114216;28;20510;-71
2022/06/09 03:48:29;;;;;;;4.70;3.70;;;;;;;;;;5115018;28;20465;-70
2022/06/09 03:50:57;;;;;;;5.43;3.90;;;;;;;;;;5113595;28;20457;-71
2022/06/09 03:53:25;;;;;;;3.33;3.00;;;;;;;;;;5114707;28;20824;-71
2022/06/09 03:55:53;;;;;;;4.70;4.17;;;;;;;;;;5114649;28;20718;-71
2022/06/09 03:58:20;;;;;;;5.40;3.93;;;;;;;;;;5117182;27;20511;-71
2022/06/09 04:00:48;;;;;;;5.50;4.47;;;;;;;;;;5118653;27;20903;-71
2022/06/09 04:03:17;;;;;;;10.30;5.30;;;;;;;;;;5119012;27;20488;-70
2022/06/09 04:05:45;;;;;;;6.10;5.30;;;;;;;;;;5118692;27;20496;-71
2022/06/09 04:08:14;;;;;;;7.50;5.87;;;;;;;;;;5119657;27;20517;-71
2022/06/09 04:10:41;;;;;;;5.80;5.20;;;;;;;;;;5118834;27;20455;-71
2022/06/09 04:13:15;;;;;;;6.03;5.43;;;;;;;;;;5118364;27;20550;-71
2022/06/09 04:15:43;;;;;;;6.00;5.40;;;;;;;;;;5117598;27;20455;-71
2022/06/09 04:18:11;;;;;;;9.23;6.60;;;;;;;;;;5118028;27;20511;-71
2022/06/09 04:20:40;;;;;;;7.10;5.10;;;;;;;;;;5119121;27;20553;-71
2022/06/09 04:23:08;;;;;;;10.10;6.30;;;;;;;;;;5117845;27;20862;-71
2022/06/09 04:25:43;;;;;;;7.63;6.20;;;;;;;;;;5119404;27;20525;-72
2022/06/09 04:28:11;;;;;;;7.60;6.30;;;;;;;;;;5118070;27;20457;-71
2022/06/09 04:30:38;;;;;;;7.80;6.80;;;;;;;;;;5117429;27;20527;-71
2022/06/09 04:33:10;;;;;;;6.57;5.80;;;;;;;;;;5117844;27;20497;-71
2022/06/09 04:35:42;;;;;;;8.07;6.77;;;;;;;;;;5117781;27;20458;-71
2022/06/09 04:38:12;;;;;;;9.77;6.80;;;;;;;;;;5117343;27;20455;-72
2022/06/09 04:40:40;;;;;;;10.73;7.90;;;;;;;;;;5116097;28;20488;-71
2022/06/09 04:43:10;;;;;;;11.57;7.50;;;;;;;;;;5116196;27;20861;-71
2022/06/09 04:45:38;;;;;;;12.20;8.57;;;;;;;;;;5117018;27;20521;-71
2022/06/09 04:48:06;;;;;;;11.53;8.43;;;;;;;;;;5117235;27;20455;-71
2022/06/09 04:50:35;;;;;;;12.97;8.90;;;;;;;;;;5108661;27;20498;-72
2022/06/09 04:53:02;;;;;;;15.60;10.23;;;;;;;;;;5117365;27;20450;-72
2022/06/09 04:55:32;;;;;;;11.07;8.70;;;;;;;;;;5116027;27;20455;-71
2022/06/09 04:58:01;;;;;;;11.93;9.10;;;;;;;;;;5116117;27;20729;-71
2022/06/09 05:00:28;;;;;;;13.73;9.20;;;;;;;;;;5109348;28;20466;-72
2022/06/09 05:02:56;;;;;;;19.17;10.83;;;;;;;;;;5106807;28;20455;-72
2022/06/09 05:05:25;;;;;;;10.60;9.23;;;;;;;;;;5115470;27;20530;-72
2022/06/09 05:07:53;;;;;;;10.67;8.87;;;;;;;;;;5118523;27;20455;-71
2022/06/09 05:10:25;;;;;;;15.00;9.60;;;;;;;;;;5113508;27;20459;-72
2022/06/09 05:12:54;;;;;;;15.13;9.50;;;;;;;;;;5116690;27;20451;-72
2022/06/09 05:15:22;;;;;;;18.30;13.20;;;;;;;;;;5115246;27;20736;-71
2022/06/09 05:17:51;;;;;;;12.10;10.57;;;;;;;;;;5107667;28;20513;-71
2022/06/09 05:20:20;;;;;;;14.03;11.47;;;;;;;;;;5116604;27;20454;-72
2022/06/09 05:22:48;;;;;;;18.83;10.63;;;;;;;;;;5113833;28;20459;-72
2022/06/09 05:25:18;;;;;;;15.37;10.40;;;;;;;;;;5110755;27;20460;-72
2022/06/09 05:27:46;;;;;;;17.03;11.20;;;;;;;;;;5107898;27;20845;-71
2022/06/09 05:30:17;;;;;;;15.73;10.90;;;;;;;;;;5111620;27;20463;-72
2022/06/09 05:32:45;;;;;;;20.20;13.80;;;;;;;;;;5108202;27;20547;-72
2022/06/09 05:35:15;;;;;;;17.90;11.57;;;;;;;;;;5103938;28;20881;-72
2022/06/09 05:46:07;;;;;;;15.03;11.20;;;;;;;;;;5106463;27;20493;-72
2022/06/09 05:48:41;;;;;;;13.97;11.40;;;;;;;;;;5113956;27;20469;-72
2022/06/09 05:51:09;;;;;;;15.83;10.50;;;;;;;;;;5113444;27;20549;-71
2022/06/09 05:53:39;;;;;;;12.80;11.10;;;;;;;;;;5115373;27;20451;-71
2022/06/09 05:56:07;;;;;;;16.60;11.77;;;;;;;;;;5099261;27;20466;-70
2022/06/09 05:58:35;;;;;;;12.73;11.43;;;;;;;;;;5114558;28;20509;-71
2022/06/09 06:01:06;;;;;;;13.70;11.17;;;;;;;;;;5097512;28;20466;-70
2022/06/09 06:03:33;;;;;;;14.83;11.17;;;;;;;;;;5113485;27;20998;-71
2022/06/09 06:08:47;;;;;;;15.70;12.27;;;;;;;;;;5114177;27;20532;-71
2022/06/09 06:11:15;;;;;;;16.87;12.03;;;;;;;;;;5114914;28;20480;-71
2022/06/09 06:13:42;;;;;;;16.40;12.07;;;;;;;;;;5114280;27;20467;-71
2022/06/09 06:16:12;;;;;;;17.80;11.50;;;;;;;;;;5107123;27;20549;-71
2022/06/09 06:18:41;;;;;;;15.07;11.23;;;;;;;;;;5114077;27;20458;-71
2022/06/09 06:21:17;;;;;;;15.90;11.87;;;;;;;;;;5113402;28;20510;-74
2022/06/09 06:24:03;;;;;;;13.67;11.67;;;;;;;;;;5113558;28;20454;-70
2022/06/09 06:26:31;;;;;;;16.33;11.63;;;;;;;;;;5106664;27;20862;-72
2022/06/09 06:28:59;;;;;;;17.20;11.80;;;;;;;;;;5114131;27;20754;-71
2022/06/09 06:31:29;;;;;;;20.87;11.70;;;;;;;;;;5114002;27;20533;-70
2022/06/09 06:33:58;;;;;;;18.60;12.43;;;;;;;;;;5113331;28;20458;-71
2022/06/09 06:36:25;;;;;;;14.80;11.47;;;;;;;;;;5113326;28;20519;-70
2022/06/09 06:38:54;;;;;;;18.00;12.13;;;;;;;;;;5113955;28;20485;-70
2022/06/09 06:41:22;;;;;;;14.77;11.43;;;;;;;;;;5106225;28;20443;-70
2022/06/09 06:43:51;;;;;;;14.90;11.97;;;;;;;;;;5114322;27;20480;-71
2022/06/09 06:46:19;;;;;;;19.90;12.00;;;;;;;;;;5108590;28;22389;-71
2022/06/09 06:48:48;;;;;;;17.20;11.40;;;;;;;;;;5114386;28;20535;-70
2022/06/09 06:51:16;;;;;;;16.97;10.93;;;;;;;;;;5114116;28;20461;-70
2022/06/09 06:53:45;;;;;;;18.20;11.20;;;;;;;;;;5110661;27;20945;-70
2022/06/09 06:56:13;;;;;;;15.77;10.70;;;;;;;;;;5114379;28;20546;-71
2022/06/09 06:58:42;;;;;;;13.83;10.40;;;;;;;;;;5114466;28;20482;-70
2022/06/09 07:01:10;;;;;;;15.83;10.60;;;;;;;;;;5110258;28;20469;-71
2022/06/09 07:03:39;;;;;;;14.87;10.37;;;;;;;;;;5104279;28;20462;-71
2022/06/09 07:06:08;;;;;;;14.13;9.70;;;;;;;;;;5107903;28;20482;-72
2022/06/09 07:08:38;;;;;;;13.23;9.83;;;;;;;;;;5106472;28;20455;-72
2022/06/09 07:11:07;;;;;;;11.80;8.93;;;;;;;;;;5109934;28;20830;-72
2022/06/09 07:13:37;;;;;;;14.37;10.10;;;;;;;;;;5113519;28;20491;-71
2022/06/09 07:16:24;;;;;;;17.97;9.13;;;;;;;;;;5107812;28;20451;-70
2022/06/09 07:18:53;;;;;;;15.43;10.23;;;;;;;;;;5105518;28;20826;-70
2022/06/09 07:21:25;;;;;;;13.70;10.57;;;;;;;;;;5113535;28;20735;-70
2022/06/09 07:23:56;;;;;;;11.47;8.03;;;;;;;;;;5113542;28;20556;-70
2022/06/09 07:26:24;;;;;;;14.83;9.00;;;;;;;;;;5112563;28;20535;-71
2022/06/09 07:28:54;;;;;;;14.07;7.63;;;;;;;;;;5110630;28;20466;-71
2022/06/09 07:31:26;;;;;;;10.33;6.20;;;;;;;;;;5113892;28;20542;-72
2022/06/09 07:33:57;;;;;;;7.97;6.60;;;;;;;;;;5109532;27;20450;-71
2022/06/09 07:36:28;;;;;;;9.20;6.83;;;;;;;;;;5116654;27;20447;-70
2022/06/09 07:38:57;;;;;;;8.37;6.43;;;;;;;;;;5110444;27;20462;-71
2022/06/09 07:41:28;;;;;;;10.90;7.40;;;;;;;;;;5115904;27;20484;-71
2022/06/09 07:44:08;;;;;;;9.17;6.10;;;;;;;;;;5117077;27;20519;-71
2022/06/09 07:46:40;;;;;;;8.87;7.13;;;;;;;;;;5116947;27;21126;-72
2022/06/09 07:49:09;;;;;;;12.77;6.57;;;;;;;;;;5116678;28;20813;-70
2022/06/09 07:51:42;;;;;;;9.63;5.70;;;;;;;;;;5116128;28;20507;-72
2022/06/09 07:54:09;;;;;;;9.53;6.60;;;;;;;;;;5113827;27;21079;-72
2022/06/09 07:56:37;;;;;;;9.20;6.50;;;;;;;;;;5117262;27;20536;-71
2022/06/09 07:59:09;;;;;;;8.20;6.57;;;;;;;;;;5117021;27;20463;-72
2022/06/09 08:01:39;;;;;;;10.30;7.90;;;;;;;;;;5110826;27;20454;-71
2022/06/09 08:04:10;;;;;;;13.30;7.10;;;;;;;;;;5115724;27;20459;-72
2022/06/09 08:06:40;;;;;;;9.37;6.53;;;;;;;;;;5117155;27;20500;-71
2022/06/09 08:09:12;;;;;;;11.43;7.30;;;;;;;;;;5114045;28;20467;-71
2022/06/09 08:11:40;;;;;;;11.63;7.20;;;;;;;;;;5113338;28;20821;-71
2022/06/09 08:14:11;;;;;;;8.50;7.07;;;;;;;;;;5114260;27;20559;-71
2022/06/09 08:16:41;;;;;;;14.23;7.60;;;;;;;;;;5117451;27;21003;-71
2022/06/09 08:19:11;;;;;;;11.73;8.80;;;;;;;;;;5116065;27;20481;-71
2022/06/09 08:21:43;;;;;;;14.07;10.33;;;;;;;;;;5117290;27;20520;-71
2022/06/09 08:24:11;;;;;;;10.53;7.60;;;;;;;;;;5114968;27;20533;-71
2022/06/09 08:26:44;;;;;;;9.93;6.30;;;;;;;;;;5115580;28;20486;-71
2022/06/09 08:29:12;;;;;;;11.03;7.53;;;;;;;;;;5115897;27;20455;-70
2022/06/09 08:31:43;;;;;;;10.13;7.70;;;;;;;;;;5113752;27;20519;-71
2022/06/09 08:34:11;;;;;;;11.80;7.10;;;;;;;;;;5115049;27;20513;-70
2022/06/09 08:36:39;;;;;;;9.70;5.90;;;;;;;;;;5110935;27;20802;-70
2022/06/09 08:39:09;;;;;;;11.97;7.57;;;;;;;;;;5118488;27;20458;-70
2022/06/09 08:41:40;;;;;;;13.10;7.60;;;;;;;;;;5116823;27;20925;-70
2022/06/09 08:44:18;;;;;;;7.93;6.93;;;;;;;;;;5111341;28;20533;-70
2022/06/09 08:46:52;;;;;;;12.20;7.73;;;;;;;;;;5115467;27;20478;-71
2022/06/09 08:49:36;;;;;;;13.00;7.40;;;;;;;;;;5120591;27;20481;-69
2022/06/09 08:52:08;;;;;;;10.20;7.50;;;;;;;;;;5112300;27;20466;-70
2022/06/09 08:54:39;;;;;;;14.13;7.90;;;;;;;;;;5120287;27;20838;-70
2022/06/09 08:57:17;;;;;;;9.00;6.93;;;;;;;;;;5111671;28;20455;-70
2022/06/09 08:59:48;;;;;;;10.30;8.03;;;;;;;;;;5113048;27;20912;-70
2022/06/09 09:02:22;;;;;;;14.27;7.93;;;;;;;;;;5114748;27;21182;-72
2022/06/09 09:04:56;;;;;;;11.80;7.20;;;;;;;;;;5115533;27;20461;-70
2022/06/09 09:07:27;;;;;;;8.63;6.70;;;;;;;;;;5115857;27;20483;-70
2022/06/09 09:09:57;;;;;;;12.33;7.93;;;;;;;;;;5116598;27;20922;-71
2022/06/09 09:12:34;;;;;;;14.17;9.20;;;;;;;;;;5117333;27;20521;-70
2022/06/09 09:15:05;;;;;;;12.80;6.83;;;;;;;;;;5112887;27;20485;-70
2022/06/09 09:17:41;;;;;;;13.73;7.77;;;;;;;;;;5121013;27;20458;-70
2022/06/09 09:20:23;;;;;;;10.47;7.77;;;;;;;;;;5116710;27;20450;-69
2022/06/09 09:22:56;;;;;;;10.90;7.93;;;;;;;;;;5110246;27;20482;-71
2022/06/09 09:25:30;;;;;;;12.90;7.00;;;;;;;;;;5116156;27;20458;-71
2022/06/09 09:28:02;;;;;;;10.13;7.70;;;;;;;;;;5113371;28;20573;-71
2022/06/09 09:30:36;;;;;;;9.37;6.53;;;;;;;;;;5104296;28;20455;-70
2022/06/09 09:33:05;;;;;;;6.10;4.73;;;;;;;;;;5114498;27;20447;-69
2022/06/09 09:35:34;;;;;;;7.90;4.27;;;;;;;;;;5110411;27;20474;-70
2022/06/09 09:38:12;;;;;;;7.43;4.30;;;;;;;;;;5111402;28;20494;-70
2022/06/09 09:40:43;;;;;;;7.37;4.67;;;;;;;;;;5110195;27;21053;-70
2022/06/09 09:43:12;;;;;;;7.67;4.80;;;;;;;;;;5116221;27;20489;-69
2022/06/09 09:45:43;;;;;;;10.43;4.80;;;;;;;;;;5114465;27;20452;-70
2022/06/09 09:48:30;;;;;;;8.00;5.80;;;;;;;;;;5108765;27;20494;-70
2022/06/09 09:50:59;;;;;;;6.40;4.93;;;;;;;;;;5114961;27;20458;-72
2022/06/09 09:53:30;;;;;;;9.03;4.00;;;;;;;;;;5114808;27;20544;-71
2022/06/09 09:56:05;;;;;;;6.57;4.47;;;;;;;;;;5114432;27;20515;-72
2022/06/09 09:58:39;;;;;;;7.30;4.33;;;;;;;;;;5112198;27;20447;-71
2022/06/09 10:01:09;;;;;;;8.50;5.10;;;;;;;;;;5110845;27;20454;-70
2022/06/09 10:09:20;;;;;;;7.80;4.00;;;;;;;;;;5106761;27;20453;-71
2022/06/09 10:11:58;;;;;;;5.73;3.90;;;;;;;;;;5113193;28;20466;-70
2022/06/09 10:14:47;;;;;;;5.77;3.67;;;;;;;;;;5107814;27;20446;-70
2022/06/09 10:17:24;;;;;;;6.30;4.27;;;;;;;;;;5105079;28;20463;-70
2022/06/09 10:20:17;;;;;;;6.03;3.90;;;;;;;;;;5114972;27;20442;-69
2022/06/09 10:22:57;;;;;;;8.30;4.67;;;;;;;;;;5109554;27;20447;-71
2022/06/09 10:25:30;;;;;;;12.83;5.60;;;;;;;;;;5113075;28;20443;-72
2022/06/09 10:28:06;;;;;;;6.73;3.90;;;;;;;;;;5110752;28;20918;-71
2022/06/09 10:31:07;;;;;;;5.70;4.07;;;;;;;;;;5114449;27;20709;-72
2022/06/09 10:33:38;;;;;;;8.70;4.00;;;;;;;;;;5115018;28;20558;-71
2022/06/09 10:36:24;;;;;;;8.60;4.13;;;;;;;;;;5112596;27;20462;-71
2022/06/09 10:39:13;;;;;;;5.97;3.10;;;;;;;;;;5101951;27;20447;-71
2022/06/09 10:41:47;;;;;;;6.30;3.40;;;;;;;;;;5107714;27;21076;-71
2022/06/09 10:44:21;;;;;;;5.87;3.80;;;;;;;;;;5112778;28;20462;-70
2022/06/09 10:55:14;;;;;;;4.67;2.50;;;;;;;;;;5114422;28;20461;-70
2022/06/09 10:55:24;;;;;;;3.47;2.10;;;;;;;;;;5108143;28;20501;-71
2022/06/09 10:57:58;;;;;;;4.00;2.10;;;;;;;;;;5113014;28;20824;-72
2022/06/09 11:00:30;;;;;;;5.27;2.80;;;;;;;;;;5113992;28;20463;-72
2022/06/09 11:03:02;;;;;;;4.43;2.77;;;;;;;;;;5114012;28;20946;-72
2022/06/09 11:05:38;;;;;;;5.17;2.50;;;;;;;;;;5112932;28;20470;-72
2022/06/09 11:08:12;;;;;;;7.37;2.80;;;;;;;;;;5114980;27;20538;-70
2022/06/09 11:10:49;;;;;;;3.20;2.20;;;;;;;;;;5118201;27;20458;-71
2022/06/09 11:13:25;;;;;;;4.23;2.27;;;;;;;;;;5116737;27;20450;-71
2022/06/09 11:15:59;;;;;;;3.77;2.20;;;;;;;;;;5107532;27;20466;-71
2022/06/09 11:18:35;;;;;;;3.87;2.40;;;;;;;;;;5112444;27;20469;-71
2022/06/09 11:21:08;;;;;;;10.50;3.03;;;;;;;;;;5113721;27;20456;-70
2022/06/09 11:23:47;;;;;;;5.50;2.10;;;;;;;;;;5112425;27;20451;-71
2022/06/09 11:26:30;;;;;;;4.50;2.40;;;;;;;;;;5117061;27;20557;-73
2022/06/09 11:29:02;;;;;;;3.70;2.13;;;;;;;;;;5117043;27;20558;-72
2022/06/09 11:31:52;;;;;;;4.77;1.93;;;;;;;;;;5116945;27;20459;-71
2022/06/09 11:34:37;;;;;;;4.17;2.27;;;;;;;;;;5089526;27;20458;-72
2022/06/09 11:37:08;;;;;;;3.60;1.97;;;;;;;;;;5114799;27;20477;-72
2022/06/09 11:39:44;;;;;;;4.80;2.40;;;;;;;;;;5113658;27;20893;-71
2022/06/09 11:42:15;;;;;;;3.17;2.40;;;;;;;;;;5114079;28;20497;-71
2022/06/09 11:44:48;;;;;;;6.13;2.07;;;;;;;;;;5113543;27;20508;-72
2022/06/09 11:47:20;;;;;;;7.07;1.80;;;;;;;;;;5111100;27;20446;-72
2022/06/09 11:49:50;;;;;;;3.83;2.40;;;;;;;;;;5117728;27;20458;-72
2022/06/09 11:52:19;;;;;;;5.13;2.27;;;;;;;;;;5113367;27;20466;-70
2022/06/09 11:55:00;;;;;;;5.67;3.00;;;;;;;;;;5118057;27;20523;-70
2022/06/09 11:57:50;;;;;;;4.90;2.50;;;;;;;;;;5113413;27;20458;-71
2022/06/09 12:00:40;;;;;;;3.73;2.00;;;;;;;;;;5108325;28;20470;-71
2022/06/09 12:03:25;;;;;;;4.10;2.07;;;;;;;;;;5115882;27;20450;-72
2022/06/09 12:05:57;;;;;;;8.17;2.10;;;;;;;;;;5110816;28;20562;-71
2022/06/09 12:08:41;;;;;;;6.30;3.33;;;;;;;;;;5116565;27;20474;-71
2022/06/09 12:11:11;;;;;;;4.03;2.07;;;;;;;;;;5105534;27;20490;-71
2022/06/09 12:13:55;;;;;;;3.67;2.30;;;;;;;;;;5113765;28;20572;-70
2022/06/09 12:16:26;;;;;;;2.90;2.00;;;;;;;;;;5111370;27;21152;-71
2022/06/09 12:19:03;;;;;;;3.07;1.50;;;;;;;;;;5112882;27;20882;-71
2022/06/09 12:21:34;;;;;;;2.97;1.40;;;;;;;;;;5116327;27;20933;-72
2022/06/09 12:24:30;;;;;;;3.57;2.00;;;;;;;;;;5112306;27;20720;-71
2022/06/09 12:27:05;;;;;;;3.70;2.10;;;;;;;;;;5115267;27;20460;-71
2022/06/09 12:32:43;;;;;;;2.63;1.40;;;;;;;;;;5109990;27;20995;-71
2022/06/09 12:35:29;;;;;;;2.40;1.47;;;;;;;;;;5116078;27;20550;-70
2022/06/09 12:38:00;;;;;;;3.57;1.67;;;;;;;;;;5116938;27;20483;-70
2022/06/09 12:40:34;;;;;;;2.70;1.47;;;;;;;;;;5115420;27;20474;-70
2022/06/09 12:43:03;;;;;;;4.37;1.87;;;;;;;;;;5115744;27;20933;-71
2022/06/09 12:45:35;;;;;;;4.63;1.80;;;;;;;;;;5115260;27;20439;-71
2022/06/09 12:48:04;;;;;;;6.40;2.20;;;;;;;;;;5118424;27;21196;-70
2022/06/09 12:50:36;;;;;;;6.23;2.87;;;;;;;;;;5119259;27;20525;-71
2022/06/09 12:53:07;;;;;;;2.67;1.80;;;;;;;;;;5114713;27;20470;-70
2022/06/09 12:55:38;;;;;;;3.13;1.90;;;;;;;;;;5107942;28;20458;-71
2022/06/09 12:58:11;;;;;;;2.83;1.60;;;;;;;;;;5114840;27;20531;-71
2022/06/09 13:00:41;;;;;;;3.57;2.20;;;;;;;;;;5111806;27;20450;-70
2022/06/09 13:03:16;;;;;;;2.80;1.90;;;;;;;;;;5115797;27;20490;-70
2022/06/09 13:05:53;;;;;;;4.93;2.47;;;;;;;;;;5108646;27;20547;-72
2022/06/09 13:08:28;;;;;;;4.73;2.50;;;;;;;;;;5118532;27;20914;-73
2022/06/09 13:11:01;;;;;;;4.60;2.10;;;;;;;;;;5117775;27;20923;-72
2022/06/09 13:13:31;;;;;;;3.70;2.70;;;;;;;;;;5117147;27;20458;-71
2022/06/09 13:16:00;;;;;;;4.20;2.30;;;;;;;;;;5114329;27;20463;-70
2022/06/09 13:18:30;;;;;;;4.20;2.03;;;;;;;;;;5106320;27;20463;-71
2022/06/09 13:21:01;;;;;;;5.40;3.17;;;;;;;;;;5115452;27;20455;-70
2022/06/09 13:23:31;;;;;;;5.50;2.53;;;;;;;;;;5112459;27;20566;-70
2022/06/09 13:26:00;;;;;;;5.00;2.40;;;;;;;;;;5114160;27;20458;-70
2022/06/09 13:28:37;;;;;;;4.60;2.20;;;;;;;;;;5120461;27;20761;-71
2022/06/09 13:31:07;;;;;;;3.80;2.10;;;;;;;;;;5111579;28;20483;-71
2022/06/09 13:33:37;;;;;;;6.90;4.97;;;;;;;;;;5116922;27;20489;-71
2022/06/09 13:36:20;;;;;;;6.20;2.73;;;;;;;;;;5110155;27;20478;-72
2022/06/09 13:38:54;;;;;;;4.70;2.90;;;;;;;;;;5112292;27;20783;-71
2022/06/09 13:41:41;;;;;;;5.37;2.40;;;;;;;;;;5112999;28;21024;-71
2022/06/09 13:44:19;;;;;;;7.40;2.20;;;;;;;;;;5109966;27;20548;-71
2022/06/09 13:47:09;;;;;;;3.63;2.20;;;;;;;;;;5114010;27;21134;-71
2022/06/09 13:49:40;;;;;;;3.23;2.93;;;;;;;;;;5113062;28;21103;-71
2022/06/09 13:52:23;;;;;;;5.03;2.20;;;;;;;;;;5113414;27;20875;-71
2022/06/09 13:54:54;;;;;;;4.43;2.27;;;;;;;;;;5110915;27;20455;-71
2022/06/09 13:57:23;;;;;;;2.93;1.50;;;;;;;;;;5120822;27;20490;-71
2022/06/09 13:59:51;;;;;;;3.57;2.60;;;;;;;;;;5104785;27;20549;-70
2022/06/09 14:02:21;;;;;;;3.03;1.50;;;;;;;;;;5112473;27;21782;-71
2022/06/09 14:04:50;;;;;;;3.80;1.50;;;;;;;;;;5111788;27;20486;-70
2022/06/09 14:07:19;;;;;;;3.63;1.60;;;;;;;;;;5110032;28;20462;-71
2022/06/09 14:09:48;;;;;;;3.70;1.67;;;;;;;;;;5102465;28;20494;-71
2022/06/09 14:12:17;;;;;;;3.17;2.00;;;;;;;;;;5107694;27;20463;-71
2022/06/09 14:14:46;;;;;;;3.03;1.80;;;;;;;;;;5109028;28;20455;-72
2022/06/09 14:20:26;;;;;;;5.40;2.57;;;;;;;;;;5108561;27;20434;-71
2022/06/09 14:22:58;;;;;;;4.40;2.43;;;;;;;;;;5113803;28;20458;-71
2022/06/09 14:25:26;;;;;;;3.07;2.20;;;;;;;;;;5113608;27;20826;-72
2022/06/09 14:28:11;;;;;;;6.77;3.17;;;;;;;;;;5112899;27;20509;-72
2022/06/09 14:30:41;;;;;;;5.73;2.40;;;;;;;;;;5114980;27;20509;-72
2022/06/09 14:33:16;;;;;;;4.57;2.83;;;;;;;;;;5112887;28;21093;-73
2022/06/09 14:35:44;;;;;;;3.50;2.70;;;;;;;;;;5109682;28;20744;-72
2022/06/09 14:38:13;;;;;;;3.47;2.73;;;;;;;;;;5114648;27;20530;-71
2022/06/09 14:40:44;;;;;;;4.20;2.03;;;;;;;;;;5111782;28;20458;-72
2022/06/09 14:43:12;;;;;;;4.63;1.93;;;;;;;;;;5111064;27;20451;-72
2022/06/09 14:45:43;;;;;;;6.50;2.87;;;;;;;;;;5113826;27;21020;-72
2022/06/09 14:48:14;;;;;;;2.93;1.83;;;;;;;;;;5113281;27;21032;-71
2022/06/09 14:50:45;;;;;;;4.73;2.17;;;;;;;;;;5112728;28;20442;-71
2022/06/09 14:53:17;;;;;;;5.20;2.00;;;;;;;;;;5095142;28;20442;-71
2022/06/09 14:55:48;;;;;;;4.87;2.20;;;;;;;;;;5112837;28;20874;-71
2022/06/09 14:58:17;;;;;;;3.00;1.50;;;;;;;;;;5113547;28;20446;-70
2022/06/09 15:00:48;;;;;;;3.67;2.17;;;;;;;;;;5112350;28;20467;-71
2022/06/09 15:03:18;;;;;;;2.93;2.40;;;;;;;;;;5111011;28;20467;-72
2022/06/09 15:05:50;;;;;;;3.80;1.87;;;;;;;;;;5112970;28;20874;-73
2022/06/09 15:08:18;;;;;;;3.17;1.80;;;;;;;;;;5111734;27;20973;-71
2022/06/09 15:10:50;;;;;;;3.07;1.83;;;;;;;;;;5113069;28;20461;-72
2022/06/09 15:13:21;;;;;;;5.47;2.40;;;;;;;;;;5113078;28;20493;-71
2022/06/09 15:15:55;;;;;;;3.10;1.80;;;;;;;;;;5112888;28;21036;-71
2022/06/09 15:18:24;;;;;;;2.37;1.60;;;;;;;;;;5112132;28;20450;-71
2022/06/09 15:20:53;;;;;;;2.53;1.80;;;;;;;;;;5108435;28;20790;-71
2022/06/09 15:23:21;;;;;;;2.70;1.27;;;;;;;;;;5107010;28;20468;-72
2022/06/09 15:25:50;;;;;;;4.60;2.00;;;;;;;;;;5112788;28;20451;-70
2022/06/09 15:28:20;;;;;;;3.13;1.70;;;;;;;;;;5114067;28;20455;-72
2022/06/09 15:30:51;;;;;;;2.87;1.40;;;;;;;;;;5108697;28;20497;-72
2022/06/09 15:33:25;;;;;;;2.83;1.40;;;;;;;;;;5112539;28;20550;-72